Time;durP1;ratioP1;P1;durP2;ratioP2;P2;SDS_P1;SDS_P2;PMS_P1;PMS_P2;Temp;Humidity;BMP_temperature;BMP_pressure;BME280_temperature;BME280_humidity;BME280_pressure;Samples;Min_cycle;Max_cycle;Signal;HPM_P1;HPM_P2
2023/10/22 00:00:07;;;;;;;16.20;15.10;;;9.60;99.90;;;;;;4998848;28;20037;-75
2023/10/22 00:02:40;;;;;;;16.70;15.32;;;9.50;99.90;;;;;;4990941;28;20049;-75
2023/10/22 00:05:07;;;;;;;16.17;14.88;;;9.30;99.90;;;;;;4991651;28;20111;-75
2023/10/22 00:07:34;;;;;;;15.27;14.25;;;9.10;99.90;;;;;;4991735;28;20051;-74
2023/10/22 00:10:02;;;;;;;15.30;14.20;;;9.10;99.90;;;;;;5009276;28;20053;-74
2023/10/22 00:12:29;;;;;;;15.85;14.20;;;9.10;99.90;;;;;;4990898;28;20116;-75
2023/10/22 00:14:55;;;;;;;15.27;14.00;;;9.10;99.90;;;;;;5003465;28;20111;-75
2023/10/22 00:17:22;;;;;;;14.30;13.30;;;9.10;99.90;;;;;;5000445;28;20042;-75
2023/10/22 00:19:49;;;;;;;14.68;13.77;;;9.20;99.90;;;;;;4994563;28;20097;-75
2023/10/22 00:22:17;;;;;;;14.93;14.02;;;9.20;99.90;;;;;;5006168;28;20033;-75
2023/10/22 00:24:44;;;;;;;15.30;14.10;;;9.30;99.90;;;;;;4993525;28;20048;-75
2023/10/22 00:27:11;;;;;;;15.13;13.73;;;9.40;99.90;;;;;;4995968;28;20052;-75
2023/10/22 00:29:38;;;;;;;14.88;13.63;;;9.60;99.90;;;;;;5002798;28;20134;-75
2023/10/22 00:32:06;;;;;;;15.23;14.13;;;9.70;99.90;;;;;;5000039;28;20089;-76
2023/10/22 00:34:33;;;;;;;15.38;14.38;;;9.80;99.90;;;;;;4999821;28;20060;-76
2023/10/22 00:37:01;;;;;;;15.63;14.45;;;9.80;99.90;;;;;;5001218;28;20041;-76
2023/10/22 00:39:28;;;;;;;15.80;14.50;;;9.80;99.90;;;;;;4999331;28;20052;-76
2023/10/22 00:41:55;;;;;;;16.23;14.82;;;9.80;99.90;;;;;;5015396;28;20026;-75
2023/10/22 00:44:23;;;;;;;15.80;14.80;;;9.70;99.90;;;;;;5017462;28;20033;-76
2023/10/22 00:46:51;;;;;;;16.38;14.90;;;9.70;99.90;;;;;;5029363;28;20053;-75
2023/10/22 00:49:18;;;;;;;16.88;14.73;;;9.70;99.90;;;;;;5014838;28;20042;-73
2023/10/22 00:51:46;;;;;;;14.88;13.90;;;9.70;99.90;;;;;;5001141;28;20161;-74
2023/10/22 00:54:14;;;;;;;16.23;14.70;;;9.70;99.90;;;;;;4997089;28;20038;-74
2023/10/22 00:56:42;;;;;;;15.70;14.60;;;9.70;99.90;;;;;;4997209;28;20130;-74
2023/10/22 00:59:11;;;;;;;16.58;15.35;;;9.70;99.90;;;;;;4984744;28;20073;-75
2023/10/22 01:01:38;;;;;;;15.35;14.40;;;9.80;99.90;;;;;;5005743;28;20048;-75
2023/10/22 01:04:05;;;;;;;14.75;13.73;;;9.80;99.90;;;;;;5003446;28;20038;-75
2023/10/22 01:06:35;;;;;;;15.68;14.07;;;9.80;99.90;;;;;;4993790;28;20092;-74
2023/10/22 01:09:02;;;;;;;15.63;14.32;;;9.90;99.90;;;;;;4996754;28;20058;-75
2023/10/22 01:11:29;;;;;;;15.13;13.98;;;9.90;99.90;;;;;;4976332;28;20049;-74
2023/10/22 01:13:56;;;;;;;15.00;14.10;;;9.90;99.90;;;;;;4993789;28;20046;-75
2023/10/22 01:16:22;;;;;;;15.15;14.10;;;9.90;99.90;;;;;;4984596;28;20049;-75
2023/10/22 01:18:50;;;;;;;14.98;13.98;;;9.90;99.90;;;;;;4998416;28;20049;-74
2023/10/22 01:21:17;;;;;;;15.50;14.38;;;9.90;99.90;;;;;;5005811;28;20056;-75
2023/10/22 01:23:44;;;;;;;14.95;14.00;;;10.00;99.90;;;;;;4994215;28;20145;-74
2023/10/22 01:26:13;;;;;;;15.23;14.10;;;10.00;99.90;;;;;;4993893;28;20419;-75
2023/10/22 01:28:40;;;;;;;14.93;13.93;;;9.90;99.90;;;;;;5016843;28;20045;-75
2023/10/22 01:31:14;;;;;;;14.93;13.90;;;9.90;99.90;;;;;;5007841;28;20492;-74
2023/10/22 01:33:41;;;;;;;15.00;13.90;;;9.90;99.90;;;;;;4996422;28;20049;-75
2023/10/22 01:36:08;;;;;;;15.68;14.43;;;9.90;99.90;;;;;;5006304;28;20573;-74
2023/10/22 01:38:37;;;;;;;15.20;14.15;;;9.80;99.90;;;;;;5005264;28;20083;-74
2023/10/22 01:41:08;;;;;;;14.90;13.82;;;9.80;99.90;;;;;;4991752;28;20058;-74
2023/10/22 01:43:35;;;;;;;15.50;14.30;;;9.80;99.90;;;;;;4993068;28;20045;-74
2023/10/22 01:46:02;;;;;;;15.50;14.23;;;9.80;99.90;;;;;;5015264;28;20067;-75
2023/10/22 01:48:29;;;;;;;14.90;13.68;;;9.80;99.90;;;;;;4997499;28;20244;-74
2023/10/22 01:50:56;;;;;;;15.10;13.65;;;9.70;99.90;;;;;;4997012;28;20049;-75
2023/10/22 01:53:23;;;;;;;16.25;13.73;;;9.60;99.90;;;;;;4997903;28;20042;-74
2023/10/22 01:55:50;;;;;;;14.77;13.60;;;9.70;99.90;;;;;;4992863;28;21335;-74
2023/10/22 01:58:20;;;;;;;14.15;13.05;;;9.60;99.90;;;;;;5004451;28;20690;-75
2023/10/22 02:00:48;;;;;;;14.45;13.18;;;9.60;99.90;;;;;;4995994;28;20049;-74
2023/10/22 02:03:15;;;;;;;13.80;12.55;;;9.60;99.90;;;;;;4993288;28;20493;-75
2023/10/22 02:05:42;;;;;;;13.63;12.77;;;9.50;99.90;;;;;;4997831;28;20500;-75
2023/10/22 02:08:09;;;;;;;13.65;12.75;;;9.50;99.90;;;;;;5006073;28;20053;-75
2023/10/22 02:10:36;;;;;;;14.20;13.20;;;9.50;99.90;;;;;;4989220;28;20038;-74
2023/10/22 02:13:03;;;;;;;13.50;12.57;;;9.50;99.90;;;;;;5024905;28;20139;-74
2023/10/22 02:15:30;;;;;;;13.85;12.75;;;9.50;99.90;;;;;;5001473;28;20045;-75
2023/10/22 02:17:57;;;;;;;14.88;13.80;;;9.50;99.90;;;;;;5003652;28;20507;-74
2023/10/22 02:20:24;;;;;;;14.55;12.88;;;9.40;99.90;;;;;;4999684;28;20037;-74
2023/10/22 02:22:51;;;;;;;13.50;12.52;;;9.40;99.90;;;;;;5000351;28;20073;-74
2023/10/22 02:25:18;;;;;;;14.30;12.90;;;9.40;99.90;;;;;;4994759;28;20037;-74
2023/10/22 02:27:44;;;;;;;13.77;12.27;;;9.40;99.90;;;;;;5000035;28;20054;-74
2023/10/22 02:30:11;;;;;;;13.40;12.50;;;9.40;99.90;;;;;;5002661;28;20115;-75
2023/10/22 02:32:38;;;;;;;13.90;12.75;;;9.50;99.90;;;;;;5016855;28;20045;-74
2023/10/22 02:35:06;;;;;;;14.10;13.20;;;9.50;99.90;;;;;;4998586;28;20072;-74
2023/10/22 02:37:33;;;;;;;16.05;14.35;;;9.50;99.90;;;;;;5006563;28;20046;-74
2023/10/22 02:40:00;;;;;;;16.15;13.50;;;9.40;99.90;;;;;;5004602;28;20497;-75
2023/10/22 02:42:27;;;;;;;13.65;12.75;;;9.40;99.90;;;;;;4993715;28;20046;-74
2023/10/22 02:44:54;;;;;;;13.50;12.38;;;9.50;99.90;;;;;;4998669;28;20042;-74
2023/10/22 02:47:21;;;;;;;13.57;12.63;;;9.50;99.90;;;;;;5003015;28;20045;-75
2023/10/22 02:49:48;;;;;;;14.05;12.98;;;9.50;99.90;;;;;;4996536;28;20041;-74
2023/10/22 02:52:15;;;;;;;14.23;13.10;;;9.50;99.90;;;;;;5027999;28;20042;-75
2023/10/22 02:54:42;;;;;;;14.10;12.73;;;9.60;99.90;;;;;;4994578;28;20381;-75
2023/10/22 02:57:09;;;;;;;13.15;12.30;;;9.60;99.90;;;;;;5001579;28;20038;-75
2023/10/22 02:59:37;;;;;;;13.23;12.07;;;9.60;99.90;;;;;;5008302;28;20072;-74
2023/10/22 03:02:04;;;;;;;13.35;12.52;;;9.70;99.90;;;;;;4999599;28;20626;-73
2023/10/22 03:04:31;;;;;;;14.25;13.20;;;9.80;99.90;;;;;;5001505;28;20056;-74
2023/10/22 03:06:58;;;;;;;14.90;13.55;;;9.90;99.90;;;;;;4988461;28;23058;-75
2023/10/22 03:09:24;;;;;;;15.23;13.55;;;10.00;99.90;;;;;;5008281;28;20054;-74
2023/10/22 03:11:51;;;;;;;15.75;14.68;;;10.00;99.90;;;;;;4976829;28;20610;-74
2023/10/22 03:14:20;;;;;;;14.30;13.30;;;10.00;99.90;;;;;;4986967;28;20139;-74
2023/10/22 03:16:47;;;;;;;14.77;13.77;;;10.00;99.90;;;;;;4997325;28;20571;-74
2023/10/22 03:19:17;;;;;;;13.75;12.77;;;10.00;99.90;;;;;;5002601;28;20041;-74
2023/10/22 03:21:44;;;;;;;13.57;12.88;;;9.90;99.90;;;;;;4997648;28;20103;-73
2023/10/22 03:24:12;;;;;;;14.27;13.25;;;9.90;99.90;;;;;;4985867;28;20511;-75
2023/10/22 03:26:39;;;;;;;14.50;13.32;;;9.90;99.90;;;;;;5000823;28;20128;-74
2023/10/22 03:29:06;;;;;;;14.77;13.57;;;9.90;99.90;;;;;;5003183;28;20038;-74
2023/10/22 03:31:33;;;;;;;15.00;13.65;;;9.80;99.90;;;;;;4987669;28;20053;-74
2023/10/22 03:34:00;;;;;;;14.75;13.45;;;9.90;99.90;;;;;;4999396;28;20075;-74
2023/10/22 03:36:27;;;;;;;15.32;14.18;;;9.80;99.90;;;;;;4998131;28;20054;-73
2023/10/22 03:38:53;;;;;;;15.05;13.60;;;9.80;99.90;;;;;;5000757;28;20061;-74
2023/10/22 03:41:20;;;;;;;14.60;13.38;;;9.80;99.90;;;;;;4995584;28;20069;-74
2023/10/22 03:43:47;;;;;;;14.65;13.38;;;9.80;99.90;;;;;;4999105;28;20053;-74
2023/10/22 03:46:14;;;;;;;15.45;14.05;;;9.80;99.90;;;;;;5006534;28;20041;-74
2023/10/22 03:48:42;;;;;;;15.30;14.25;;;9.80;99.90;;;;;;4995413;28;20038;-74
2023/10/22 03:51:09;;;;;;;14.25;13.20;;;9.70;99.90;;;;;;4999471;28;20091;-75
2023/10/22 03:53:39;;;;;;;14.55;13.60;;;9.70;99.90;;;;;;5000256;28;20069;-74
2023/10/22 03:56:07;;;;;;;14.50;13.15;;;9.70;99.90;;;;;;4997227;28;20049;-77
2023/10/22 03:58:34;;;;;;;15.77;13.90;;;9.70;99.90;;;;;;4998309;28;20050;-75
2023/10/22 04:01:01;;;;;;;15.25;13.95;;;9.60;99.90;;;;;;4999368;28;20111;-75
2023/10/22 04:03:28;;;;;;;13.95;13.05;;;9.60;99.90;;;;;;4987297;28;20056;-74
2023/10/22 04:05:58;;;;;;;14.38;13.00;;;9.60;99.90;;;;;;5000886;28;20951;-74
2023/10/22 04:08:25;;;;;;;14.35;13.35;;;9.60;99.90;;;;;;5004134;28;20083;-74
2023/10/22 04:10:52;;;;;;;15.60;14.45;;;9.60;99.90;;;;;;4995202;28;20042;-74
2023/10/22 04:13:19;;;;;;;13.80;12.73;;;9.60;99.90;;;;;;5005931;28;20132;-74
2023/10/22 04:15:48;;;;;;;14.40;13.20;;;9.60;99.90;;;;;;4999518;28;20096;-74
2023/10/22 04:18:16;;;;;;;13.68;12.88;;;9.60;99.90;;;;;;4998345;28;20033;-76
2023/10/22 04:20:43;;;;;;;13.73;12.70;;;9.50;99.90;;;;;;4996348;28;20060;-74
2023/10/22 04:23:10;;;;;;;14.07;13.05;;;9.50;99.90;;;;;;4998986;28;20033;-75
2023/10/22 04:25:42;;;;;;;13.75;12.88;;;9.50;99.90;;;;;;4998124;28;20050;-74
2023/10/22 04:28:10;;;;;;;13.82;12.73;;;9.50;99.90;;;;;;5002951;28;20581;-75
2023/10/22 04:30:43;;;;;;;14.20;13.00;;;9.50;99.90;;;;;;5020070;28;20156;-74
2023/10/22 04:33:10;;;;;;;14.40;13.15;;;9.50;99.90;;;;;;5000724;28;20079;-74
2023/10/22 04:35:37;;;;;;;14.25;13.27;;;9.50;99.90;;;;;;5004655;28;20053;-74
2023/10/22 04:38:05;;;;;;;14.35;12.98;;;9.50;99.90;;;;;;5002891;28;20045;-75
2023/10/22 04:40:32;;;;;;;17.67;14.00;;;9.50;99.90;;;;;;5004809;28;20057;-75
2023/10/22 04:42:59;;;;;;;14.00;13.00;;;9.50;99.90;;;;;;5007162;28;20049;-74
2023/10/22 04:45:26;;;;;;;14.27;13.20;;;9.50;99.90;;;;;;4997947;28;20057;-74
2023/10/22 04:47:56;;;;;;;15.30;13.88;;;9.60;99.90;;;;;;5003655;28;20053;-74
2023/10/22 04:50:26;;;;;;;14.40;13.25;;;9.60;99.90;;;;;;4999810;28;20077;-74
2023/10/22 04:52:53;;;;;;;14.27;13.00;;;9.60;99.90;;;;;;4992723;28;20050;-74
2023/10/22 04:55:20;;;;;;;14.70;13.55;;;9.60;99.90;;;;;;5002097;28;20142;-74
2023/10/22 04:57:47;;;;;;;14.77;13.60;;;9.70;99.90;;;;;;4994116;28;20038;-74
2023/10/22 05:00:14;;;;;;;15.05;13.60;;;9.80;99.90;;;;;;5003155;28;20037;-74
2023/10/22 05:02:41;;;;;;;14.90;13.60;;;9.70;99.90;;;;;;5009162;28;20021;-73
2023/10/22 05:05:08;;;;;;;14.20;13.18;;;9.70;99.90;;;;;;5026411;28;20060;-74
2023/10/22 05:07:35;;;;;;;15.00;13.80;;;9.70;99.90;;;;;;5035080;28;20034;-73
2023/10/22 05:10:02;;;;;;;13.75;12.95;;;9.70;99.90;;;;;;5015848;28;20129;-75
2023/10/22 05:12:29;;;;;;;15.00;13.32;;;9.70;99.90;;;;;;4998352;28;20100;-75
2023/10/22 05:14:56;;;;;;;15.07;13.73;;;9.70;99.90;;;;;;4998394;28;20060;-74
2023/10/22 05:17:24;;;;;;;15.07;13.65;;;9.70;99.90;;;;;;5003151;28;20468;-75
2023/10/22 05:19:51;;;;;;;15.00;13.55;;;9.60;99.90;;;;;;4999010;28;20044;-75
2023/10/22 05:22:18;;;;;;;14.00;13.15;;;9.60;99.90;;;;;;5002099;28;20041;-74
2023/10/22 05:24:48;;;;;;;14.27;13.20;;;9.60;99.90;;;;;;4993407;28;20719;-74
2023/10/22 05:27:17;;;;;;;13.70;12.85;;;9.60;99.90;;;;;;5001431;28;20041;-75
2023/10/22 05:29:47;;;;;;;13.98;12.85;;;9.60;99.90;;;;;;4981654;28;20084;-75
2023/10/22 05:32:17;;;;;;;14.38;12.90;;;9.60;99.90;;;;;;5006960;28;20049;-75
2023/10/22 05:34:44;;;;;;;14.07;13.00;;;9.60;99.90;;;;;;4994311;28;20148;-75
2023/10/22 05:37:11;;;;;;;14.70;13.10;;;9.60;99.90;;;;;;4990693;28;20069;-75
2023/10/22 05:39:38;;;;;;;13.70;12.73;;;9.70;99.90;;;;;;4999939;28;20050;-74
2023/10/22 05:42:06;;;;;;;14.48;13.30;;;9.70;99.90;;;;;;4996747;28;20046;-74
2023/10/22 05:44:36;;;;;;;13.85;12.88;;;9.70;99.90;;;;;;4998264;28;20049;-74
2023/10/22 05:47:04;;;;;;;13.73;12.75;;;9.70;99.90;;;;;;4998893;28;21130;-75
2023/10/22 05:49:31;;;;;;;13.43;12.43;;;9.70;99.90;;;;;;4979396;28;20039;-75
2023/10/22 05:51:58;;;;;;;13.63;12.82;;;9.70;99.90;;;;;;4994921;28;20049;-74
2023/10/22 05:54:25;;;;;;;14.43;13.38;;;9.80;99.90;;;;;;4995708;28;20053;-75
2023/10/22 05:56:52;;;;;;;14.20;13.10;;;9.80;99.90;;;;;;4983815;28;20053;-74
2023/10/22 05:59:18;;;;;;;13.93;13.02;;;9.80;99.90;;;;;;4999516;28;20041;-75
2023/10/22 06:01:45;;;;;;;15.25;13.77;;;9.80;99.90;;;;;;4994008;28;20061;-75
2023/10/22 06:04:12;;;;;;;17.00;14.80;;;9.80;99.90;;;;;;5001690;28;20124;-74
2023/10/22 06:06:39;;;;;;;14.82;13.13;;;9.80;99.90;;;;;;4979195;28;20885;-74
2023/10/22 06:09:06;;;;;;;16.58;15.25;;;9.80;99.90;;;;;;4995146;28;21280;-74
2023/10/22 06:11:34;;;;;;;15.38;14.25;;;9.80;99.90;;;;;;4981014;28;20053;-74
2023/10/22 06:14:02;;;;;;;14.20;13.23;;;9.80;99.90;;;;;;4995095;28;20060;-74
2023/10/22 06:16:31;;;;;;;16.15;14.93;;;9.80;99.90;;;;;;4999197;28;20062;-74
2023/10/22 06:18:58;;;;;;;15.20;13.98;;;9.80;99.90;;;;;;4995935;28;20049;-74
2023/10/22 06:21:25;;;;;;;15.02;13.70;;;9.80;99.90;;;;;;4994032;28;20038;-74
2023/10/22 06:23:52;;;;;;;14.10;12.93;;;9.80;99.90;;;;;;4988424;28;20046;-73
2023/10/22 06:26:18;;;;;;;14.40;13.15;;;9.80;99.90;;;;;;5000369;28;20041;-74
2023/10/22 06:28:47;;;;;;;15.00;13.88;;;9.80;99.90;;;;;;4994487;28;20069;-74
2023/10/22 06:31:14;;;;;;;18.02;16.40;;;9.80;99.90;;;;;;4993713;28;20038;-74
2023/10/22 06:33:41;;;;;;;15.73;14.38;;;9.70;99.90;;;;;;4982193;28;20602;-74
2023/10/22 06:36:20;;;;;;;17.10;15.77;;;9.70;99.90;;;;;;4994713;28;20678;-74
2023/10/22 06:38:48;;;;;;;13.82;12.77;;;9.80;99.90;;;;;;4990530;28;20081;-73
2023/10/22 06:41:21;;;;;;;17.08;13.60;;;9.80;99.90;;;;;;4990703;28;20045;-74
2023/10/22 06:43:48;;;;;;;13.77;12.80;;;9.90;99.90;;;;;;5001379;28;20103;-75
2023/10/22 06:46:19;;;;;;;14.25;13.00;;;9.90;99.90;;;;;;4996774;28;20038;-74
2023/10/22 06:48:47;;;;;;;13.52;12.40;;;10.00;99.90;;;;;;4998074;28;20111;-73
2023/10/22 06:51:15;;;;;;;13.70;12.50;;;10.10;99.90;;;;;;5000194;28;20755;-74
2023/10/22 06:53:43;;;;;;;13.57;12.55;;;10.10;99.90;;;;;;4996641;28;20053;-73
2023/10/22 06:56:12;;;;;;;14.38;13.15;;;10.20;99.90;;;;;;4993840;28;20046;-74
2023/10/22 06:58:39;;;;;;;14.88;13.63;;;10.20;99.90;;;;;;4992483;28;20137;-74
2023/10/22 07:01:10;;;;;;;13.95;13.20;;;10.20;99.90;;;;;;4995551;28;21738;-75
2023/10/22 07:03:40;;;;;;;13.63;12.68;;;10.20;99.90;;;;;;4992794;28;20057;-74
2023/10/22 07:06:11;;;;;;;13.90;12.90;;;10.20;99.90;;;;;;4994732;28;20034;-74
2023/10/22 07:08:39;;;;;;;13.40;12.40;;;10.20;99.90;;;;;;4997307;28;20057;-74
2023/10/22 07:11:06;;;;;;;13.45;12.55;;;10.20;99.90;;;;;;4990640;28;20046;-74
2023/10/22 07:13:33;;;;;;;13.70;12.77;;;10.30;99.90;;;;;;5002480;28;20437;-74
2023/10/22 07:15:59;;;;;;;13.93;13.13;;;10.30;99.90;;;;;;4991634;28;20050;-75
2023/10/22 07:18:26;;;;;;;14.57;13.48;;;10.40;99.90;;;;;;4994640;28;20461;-74
2023/10/22 07:20:53;;;;;;;13.10;12.40;;;10.50;99.90;;;;;;4995178;28;20045;-73
2023/10/22 07:23:20;;;;;;;15.23;14.02;;;10.50;99.90;;;;;;4994573;28;20041;-74
2023/10/22 07:25:47;;;;;;;15.43;14.23;;;10.60;99.90;;;;;;4977601;28;20096;-73
2023/10/22 07:28:17;;;;;;;15.07;14.00;;;10.70;99.90;;;;;;5002482;28;20056;-74
2023/10/22 07:30:48;;;;;;;14.27;13.25;;;10.80;99.90;;;;;;4996128;28;20612;-74
2023/10/22 07:33:16;;;;;;;15.15;14.27;;;10.90;99.90;;;;;;4990077;28;20587;-74
2023/10/22 07:35:54;;;;;;;14.85;13.90;;;11.00;99.90;;;;;;4995111;28;20155;-73
2023/10/22 07:38:24;;;;;;;16.40;15.15;;;11.10;99.90;;;;;;5000598;28;20049;-74
2023/10/22 07:40:55;;;;;;;15.32;14.40;;;11.10;99.90;;;;;;4992437;28;20172;-71
2023/10/22 07:43:24;;;;;;;16.35;15.30;;;11.10;99.90;;;;;;4998382;28;20046;-74
2023/10/22 07:45:51;;;;;;;16.40;14.88;;;11.20;99.90;;;;;;4982915;28;20034;-73
2023/10/22 07:48:18;;;;;;;14.50;13.60;;;11.20;99.90;;;;;;4995246;28;20054;-72
2023/10/22 07:50:46;;;;;;;15.65;14.30;;;11.20;99.90;;;;;;5001635;28;20056;-74
2023/10/22 07:53:14;;;;;;;16.20;15.30;;;11.30;99.90;;;;;;4993516;28;20050;-74
2023/10/22 07:55:42;;;;;;;15.43;14.63;;;11.40;99.90;;;;;;4983730;28;20691;-73
2023/10/22 07:58:09;;;;;;;14.43;13.65;;;11.40;99.90;;;;;;4985389;28;21496;-73
2023/10/22 08:00:36;;;;;;;13.95;13.32;;;11.40;99.90;;;;;;4999127;28;20046;-73
2023/10/22 08:03:03;;;;;;;13.73;13.02;;;11.60;99.90;;;;;;4993274;28;20129;-73
2023/10/22 08:05:31;;;;;;;16.42;15.30;;;11.70;99.90;;;;;;5006316;28;20042;-75
2023/10/22 08:07:58;;;;;;;15.77;14.38;;;11.80;99.90;;;;;;5005570;28;20048;-74
2023/10/22 08:10:25;;;;;;;17.17;15.88;;;11.80;99.90;;;;;;5014669;28;20089;-73
2023/10/22 08:12:52;;;;;;;15.88;14.77;;;11.90;99.90;;;;;;5007661;28;20038;-73
2023/10/22 08:15:19;;;;;;;16.40;15.40;;;11.90;99.90;;;;;;5025240;28;20045;-73
2023/10/22 08:17:46;;;;;;;15.73;14.93;;;12.00;99.90;;;;;;5025708;28;20042;-73
2023/10/22 08:20:14;;;;;;;15.80;14.98;;;12.00;99.90;;;;;;5019200;28;20125;-72
2023/10/22 08:22:42;;;;;;;15.27;14.30;;;12.10;99.90;;;;;;5018744;28;20166;-73
2023/10/22 08:25:09;;;;;;;15.63;14.63;;;12.10;99.90;;;;;;5014362;28;20063;-73
2023/10/22 08:27:36;;;;;;;16.30;15.10;;;12.10;99.90;;;;;;5020368;28;20054;-73
2023/10/22 08:30:04;;;;;;;16.13;15.13;;;12.00;99.90;;;;;;5014632;28;20810;-73
2023/10/22 08:32:34;;;;;;;20.02;14.13;;;11.90;99.90;;;;;;5019316;28;20050;-73
2023/10/22 08:35:05;;;;;;;13.90;13.23;;;11.90;99.90;;;;;;5002263;28;20030;-73
2023/10/22 08:37:32;;;;;;;16.75;15.55;;;11.90;99.90;;;;;;5001899;28;20525;-73
2023/10/22 08:40:00;;;;;;;15.43;14.48;;;11.90;99.90;;;;;;5013896;28;20065;-73
2023/10/22 08:42:28;;;;;;;14.45;13.65;;;11.90;99.90;;;;;;5013873;28;20041;-73
2023/10/22 08:44:56;;;;;;;15.68;14.65;;;12.00;99.90;;;;;;5002883;28;20613;-72
2023/10/22 08:47:23;;;;;;;14.52;13.68;;;11.90;99.90;;;;;;5009431;28;20046;-71
2023/10/22 08:49:52;;;;;;;14.85;14.02;;;11.80;99.90;;;;;;5005572;28;20050;-69
2023/10/22 08:52:19;;;;;;;16.20;14.98;;;11.70;99.90;;;;;;5037929;28;20116;-71
2023/10/22 08:54:46;;;;;;;14.40;13.52;;;11.70;99.90;;;;;;5009219;28;20060;-72
2023/10/22 08:57:14;;;;;;;13.68;13.07;;;11.70;99.90;;;;;;5003183;28;20141;-73
2023/10/22 08:59:41;;;;;;;14.95;14.05;;;11.70;99.90;;;;;;5011563;28;20046;-71
2023/10/22 09:02:10;;;;;;;15.20;14.40;;;11.70;99.90;;;;;;5000921;28;20046;-72
2023/10/22 09:04:40;;;;;;;16.02;15.00;;;11.70;99.90;;;;;;4994019;28;20061;-73
2023/10/22 09:07:08;;;;;;;16.10;15.30;;;11.80;99.90;;;;;;4995567;28;20054;-74
2023/10/22 09:09:37;;;;;;;16.05;15.07;;;11.80;99.90;;;;;;5001606;28;20073;-72
2023/10/22 09:12:08;;;;;;;16.17;15.30;;;11.90;99.90;;;;;;5013839;28;20041;-73
2023/10/22 09:14:35;;;;;;;17.20;16.30;;;11.90;99.90;;;;;;5026012;28;20573;-72
2023/10/22 09:17:18;;;;;;;16.95;16.15;;;12.00;99.90;;;;;;5014673;28;20042;-72
2023/10/22 09:19:47;;;;;;;19.02;17.80;;;12.20;99.90;;;;;;5021553;28;20042;-70
2023/10/22 09:22:24;;;;;;;18.90;17.90;;;12.30;99.90;;;;;;4994264;28;20109;-73
2023/10/22 09:24:56;;;;;;;19.55;18.05;;;12.30;99.90;;;;;;5002186;28;20199;-71
2023/10/22 09:27:28;;;;;;;19.60;18.55;;;12.40;99.90;;;;;;5024033;28;20048;-71
2023/10/22 09:29:58;;;;;;;20.00;18.83;;;12.50;99.90;;;;;;5024223;28;20055;-70
2023/10/22 09:32:26;;;;;;;21.98;20.77;;;12.70;99.90;;;;;;4992561;28;20092;-70
2023/10/22 09:35:13;;;;;;;21.70;20.52;;;12.70;99.90;;;;;;4999070;28;20056;-71
2023/10/22 09:37:50;;;;;;;21.13;19.95;;;12.80;99.90;;;;;;5026950;28;20052;-71
2023/10/22 09:40:23;;;;;;;21.25;20.05;;;12.80;99.90;;;;;;4996792;28;20053;-71
2023/10/22 09:42:51;;;;;;;24.40;22.80;;;12.80;99.90;;;;;;4976366;28;20076;-71
2023/10/22 09:45:20;;;;;;;44.83;41.20;;;12.90;99.90;;;;;;4994832;28;20100;-74
2023/10/22 09:47:48;;;;;;;22.08;20.88;;;12.90;99.90;;;;;;4998093;28;20045;-74
2023/10/22 09:50:32;;;;;;;21.33;20.13;;;12.90;99.90;;;;;;4989715;28;20132;-74
2023/10/22 09:53:01;;;;;;;20.92;19.92;;;12.90;99.90;;;;;;4997887;28;20057;-71
2023/10/22 09:55:31;;;;;;;21.73;20.55;;;12.90;99.90;;;;;;4995421;28;20050;-72
2023/10/22 09:58:15;;;;;;;21.20;20.10;;;12.90;99.90;;;;;;4995464;28;20048;-74
2023/10/22 10:00:44;;;;;;;22.27;20.80;;;12.90;99.90;;;;;;4993077;28;20124;-72
2023/10/22 10:03:20;;;;;;;22.05;20.65;;;12.90;99.90;;;;;;4974817;28;20104;-72
2023/10/22 10:05:48;;;;;;;22.90;21.45;;;13.00;99.90;;;;;;4997364;28;20666;-71
2023/10/22 10:08:15;;;;;;;20.95;19.80;;;13.10;99.90;;;;;;4972488;28;20137;-74
2023/10/22 10:10:45;;;;;;;22.33;21.02;;;13.10;99.90;;;;;;4988364;28;20045;-74
2023/10/22 10:13:12;;;;;;;21.50;20.38;;;13.20;99.90;;;;;;5020386;28;20049;-73
2023/10/22 10:15:39;;;;;;;22.85;21.58;;;13.20;99.90;;;;;;4996411;28;20175;-73
2023/10/22 10:18:09;;;;;;;21.15;19.85;;;13.10;99.90;;;;;;4996149;28;20046;-74
2023/10/22 10:20:39;;;;;;;23.17;21.92;;;13.20;99.90;;;;;;4993616;28;20045;-73
2023/10/22 10:23:10;;;;;;;23.13;21.83;;;13.20;99.90;;;;;;4990648;28;20541;-74
2023/10/22 10:25:41;;;;;;;21.92;20.83;;;13.10;99.90;;;;;;4993243;28;20038;-74
2023/10/22 10:28:10;;;;;;;21.38;20.20;;;13.00;99.90;;;;;;4995466;28;20049;-73
2023/10/22 10:30:38;;;;;;;21.70;20.58;;;12.90;99.90;;;;;;4983048;28;20546;-74
2023/10/22 10:33:05;;;;;;;21.77;20.58;;;12.90;99.90;;;;;;4996494;28;20033;-75
2023/10/22 10:35:46;;;;;;;23.10;21.90;;;12.90;99.90;;;;;;4990833;28;20042;-74
2023/10/22 10:38:17;;;;;;;23.20;21.80;;;12.90;99.90;;;;;;4991028;28;20057;-74
2023/10/22 10:40:55;;;;;;;23.40;22.08;;;12.90;99.90;;;;;;4994970;28;20080;-75
2023/10/22 10:44:05;;;;;;;22.35;21.15;;;12.90;99.90;;;;;;4993451;28;20136;-75
2023/10/22 10:46:32;;;;;;;22.63;21.33;;;12.90;99.90;;;;;;4983706;28;20050;-74
2023/10/22 10:48:59;;;;;;;22.10;20.90;;;13.00;99.90;;;;;;4997593;28;20050;-75
2023/10/22 10:51:27;;;;;;;26.63;24.83;;;12.90;99.90;;;;;;4993121;28;20451;-74
2023/10/22 10:54:14;;;;;;;26.58;24.77;;;12.90;99.90;;;;;;4982389;28;20042;-74
2023/10/22 10:56:55;;;;;;;25.30;23.65;;;12.90;99.90;;;;;;4999727;28;20045;-74
2023/10/22 10:59:36;;;;;;;26.70;24.90;;;12.80;99.90;;;;;;4994155;28;21343;-74
2023/10/22 11:02:10;;;;;;;24.80;23.30;;;12.80;99.90;;;;;;4991445;28;20054;-74
2023/10/22 11:04:43;;;;;;;26.92;25.15;;;12.70;99.90;;;;;;4993361;28;20053;-75
2023/10/22 11:07:10;;;;;;;21.75;20.25;;;12.70;99.90;;;;;;4972082;28;20037;-73
2023/10/22 11:09:53;;;;;;;32.22;29.35;;;12.70;99.90;;;;;;4995976;28;20041;-75
2023/10/22 11:12:21;;;;;;;22.35;20.95;;;12.70;99.90;;;;;;4995117;28;20144;-74
2023/10/22 11:14:56;;;;;;;22.27;20.98;;;12.60;99.90;;;;;;5003117;28;20661;-74
2023/10/22 11:17:24;;;;;;;21.77;20.38;;;12.70;99.90;;;;;;4996078;28;21578;-74
2023/10/22 11:19:53;;;;;;;21.38;20.17;;;12.70;99.90;;;;;;4992722;28;20131;-74
2023/10/22 11:22:20;;;;;;;21.13;20.02;;;12.70;99.90;;;;;;4993690;28;20053;-73
2023/10/22 11:24:49;;;;;;;20.75;19.48;;;12.70;99.90;;;;;;4995573;28;20053;-74
2023/10/22 11:27:18;;;;;;;21.38;20.27;;;12.60;99.90;;;;;;4996357;28;20037;-74
2023/10/22 11:29:49;;;;;;;21.13;19.92;;;12.50;99.90;;;;;;5000753;28;20042;-74
2023/10/22 11:32:21;;;;;;;21.45;20.35;;;12.30;99.90;;;;;;4991008;28;20058;-73
2023/10/22 11:34:53;;;;;;;21.15;20.05;;;12.30;99.90;;;;;;4997081;28;20049;-73
2023/10/22 11:37:36;;;;;;;20.38;19.27;;;12.30;99.90;;;;;;4994436;28;20050;-73
2023/10/22 11:40:23;;;;;;;22.42;21.02;;;12.30;99.90;;;;;;4983175;28;20470;-75
2023/10/22 11:42:52;;;;;;;20.48;19.38;;;12.30;99.90;;;;;;4994200;28;20041;-75
2023/10/22 11:45:19;;;;;;;22.52;21.10;;;12.50;99.90;;;;;;4995735;28;20459;-76
2023/10/22 11:47:46;;;;;;;21.90;20.70;;;12.60;99.90;;;;;;4990288;28;20596;-72
2023/10/22 11:50:14;;;;;;;23.08;21.67;;;12.60;99.90;;;;;;4998037;28;20073;-73
2023/10/22 11:52:54;;;;;;;21.65;20.40;;;12.70;99.90;;;;;;4992122;28;20045;-75
2023/10/22 11:55:21;;;;;;;23.27;21.88;;;12.80;99.90;;;;;;4996747;28;20049;-72
2023/10/22 11:58:35;;;;;;;21.77;20.23;;;12.90;99.90;;;;;;5004374;28;20041;-74
2023/10/22 12:01:02;;;;;;;21.77;20.38;;;12.80;99.90;;;;;;5002246;28;20045;-73
2023/10/22 12:03:29;;;;;;;21.92;20.67;;;12.80;99.90;;;;;;4996663;28;20048;-73
2023/10/22 12:05:56;;;;;;;22.02;20.75;;;12.80;99.90;;;;;;4997909;28;20791;-74
2023/10/22 12:08:23;;;;;;;20.70;19.42;;;12.90;99.90;;;;;;5000246;28;20128;-75
2023/10/22 12:10:50;;;;;;;22.85;21.42;;;12.80;99.90;;;;;;4999729;28;20050;-75
2023/10/22 12:13:17;;;;;;;24.08;22.58;;;12.80;99.90;;;;;;4999629;28;20046;-74
2023/10/22 12:15:44;;;;;;;24.17;22.33;;;12.80;99.90;;;;;;4998423;28;20104;-74
2023/10/22 12:18:11;;;;;;;25.02;23.25;;;12.90;99.90;;;;;;4996032;28;20077;-74
2023/10/22 12:20:38;;;;;;;23.17;21.77;;;12.90;99.90;;;;;;5009895;28;20056;-74
2023/10/22 12:23:06;;;;;;;22.50;20.88;;;13.10;99.90;;;;;;4993152;28;20107;-74
2023/10/22 12:25:33;;;;;;;22.60;21.20;;;13.10;99.90;;;;;;4996536;28;20128;-75
2023/10/22 12:27:59;;;;;;;23.30;21.80;;;13.30;99.90;;;;;;4999008;28;20167;-74
2023/10/22 12:30:27;;;;;;;24.38;22.88;;;13.30;99.90;;;;;;4998845;28;20065;-73
2023/10/22 12:32:54;;;;;;;24.10;22.60;;;13.30;99.90;;;;;;4999266;28;20079;-74
2023/10/22 12:35:22;;;;;;;21.75;20.45;;;13.50;99.90;;;;;;4993231;28;20045;-74
2023/10/22 12:37:51;;;;;;;22.90;21.50;;;13.40;99.90;;;;;;4999037;28;20076;-74
2023/10/22 12:40:18;;;;;;;21.17;20.00;;;13.50;99.90;;;;;;4990670;28;20141;-74